Time;durP1;ratioP1;P1;durP2;ratioP2;P2;SDS_P1;SDS_P2;PMS_P1;PMS_P2;Temp;Humidity;BMP_temperature;BMP_pressure;BME280_temperature;BME280_humidity;BME280_pressure;Samples;Min_cycle;Max_cycle;Signal;HPM_P1;HPM_P2
2020/12/09 00:00:10;;;;;;;27.77;14.80;;;3.80;99.90;;;;;;5094543;28;20459;-71
2020/12/09 00:02:36;;;;;;;34.13;15.07;;;3.90;99.90;;;;;;5094467;28;20463;-71
2020/12/09 00:05:04;;;;;;;27.40;14.00;;;3.90;99.90;;;;;;5094494;28;20450;-71
2020/12/09 00:07:34;;;;;;;28.90;14.87;;;3.90;99.90;;;;;;5094450;28;20410;-71
2020/12/09 00:10:00;;;;;;;32.40;15.90;;;3.90;99.90;;;;;;5094071;28;20825;-72
2020/12/09 00:12:27;;;;;;;32.80;15.00;;;3.80;99.90;;;;;;5094355;28;20443;-71
2020/12/09 00:14:53;;;;;;;29.07;15.07;;;3.90;99.90;;;;;;5093974;28;20957;-71
2020/12/09 00:17:20;;;;;;;34.70;15.43;;;3.80;99.90;;;;;;5094265;28;20418;-71
2020/12/09 00:19:47;;;;;;;29.30;14.87;;;3.80;99.90;;;;;;5094167;28;20431;-71
2020/12/09 00:22:13;;;;;;;30.13;14.80;;;3.90;99.90;;;;;;5094179;28;20483;-71
2020/12/09 00:24:39;;;;;;;32.57;16.57;;;3.90;99.90;;;;;;5093807;28;20922;-71
2020/12/09 00:27:05;;;;;;;31.80;14.83;;;3.90;99.90;;;;;;5094164;28;20447;-71
2020/12/09 00:29:31;;;;;;;35.20;15.87;;;3.90;99.90;;;;;;5094021;28;20445;-71
2020/12/09 00:31:58;;;;;;;33.50;15.57;;;3.90;99.90;;;;;;5093973;28;20433;-71
2020/12/09 00:34:25;;;;;;;30.90;15.80;;;3.90;99.90;;;;;;5093741;28;20475;-71
2020/12/09 00:36:51;;;;;;;31.50;15.03;;;3.90;99.90;;;;;;5093970;28;20428;-71
2020/12/09 00:39:17;;;;;;;31.00;15.70;;;3.90;99.90;;;;;;5093876;28;20460;-71
2020/12/09 00:41:43;;;;;;;34.53;15.90;;;3.80;99.90;;;;;;5093652;28;20479;-71
2020/12/09 00:44:10;;;;;;;35.77;17.33;;;3.90;99.90;;;;;;5093500;28;20784;-71
2020/12/09 00:46:36;;;;;;;26.20;14.40;;;4.00;99.90;;;;;;5093815;28;20418;-71
2020/12/09 00:49:02;;;;;;;31.17;14.80;;;4.00;99.90;;;;;;5093730;28;20443;-67
2020/12/09 00:51:29;;;;;;;33.10;16.97;;;3.90;99.90;;;;;;5093290;28;20501;-67
2020/12/09 00:53:55;;;;;;;32.63;16.03;;;3.90;99.90;;;;;;5093329;28;20977;-67
2020/12/09 00:56:21;;;;;;;28.07;15.23;;;3.90;99.90;;;;;;5093640;28;20447;-67
2020/12/09 00:58:48;;;;;;;36.17;16.37;;;3.80;99.90;;;;;;5093559;28;20435;-67
2020/12/09 01:01:14;;;;;;;35.10;16.20;;;4.00;99.90;;;;;;5093391;28;20465;-67
2020/12/09 01:03:41;;;;;;;36.70;15.90;;;3.80;99.90;;;;;;5093240;28;20807;-67
2020/12/09 01:06:08;;;;;;;37.37;15.77;;;3.80;99.90;;;;;;5093265;28;20440;-67
2020/12/09 01:08:36;;;;;;;34.50;16.30;;;3.90;99.90;;;;;;5092561;28;20411;-65
2020/12/09 01:11:03;;;;;;;36.03;15.97;;;3.90;99.90;;;;;;5093381;28;20775;-66
2020/12/09 01:13:29;;;;;;;36.70;16.67;;;3.90;99.90;;;;;;5093115;28;20902;-66
2020/12/09 01:15:55;;;;;;;37.13;17.17;;;3.80;99.90;;;;;;5093438;28;20432;-65
2020/12/09 01:18:21;;;;;;;33.67;16.37;;;3.80;99.90;;;;;;5093374;28;20447;-66
2020/12/09 01:20:48;;;;;;;34.17;17.13;;;3.80;99.90;;;;;;5093292;28;20456;-66
2020/12/09 01:23:15;;;;;;;38.40;16.97;;;3.80;99.90;;;;;;5093269;28;20488;-67
2020/12/09 01:25:42;;;;;;;31.03;15.20;;;3.80;99.90;;;;;;5093324;28;20443;-67
2020/12/09 01:28:08;;;;;;;30.37;15.53;;;3.80;99.90;;;;;;5093282;28;20444;-67
2020/12/09 01:30:34;;;;;;;34.00;15.83;;;3.80;99.90;;;;;;5093185;28;20435;-67
2020/12/09 01:33:01;;;;;;;37.97;17.27;;;3.80;99.90;;;;;;5093219;28;20443;-66
2020/12/09 01:35:27;;;;;;;27.93;15.30;;;3.80;99.90;;;;;;5092845;28;20482;-66
2020/12/09 01:37:54;;;;;;;34.93;17.63;;;3.70;99.90;;;;;;5093180;28;20443;-66
2020/12/09 01:40:21;;;;;;;30.10;15.70;;;3.80;99.90;;;;;;5092835;28;20980;-67
2020/12/09 01:42:49;;;;;;;33.20;15.97;;;3.90;99.90;;;;;;5093082;28;20458;-66
2020/12/09 01:45:16;;;;;;;33.97;17.23;;;3.80;99.90;;;;;;5092880;28;20466;-67
2020/12/09 01:47:45;;;;;;;33.63;15.50;;;3.80;99.90;;;;;;5093094;28;20435;-66
2020/12/09 01:50:12;;;;;;;32.67;14.93;;;3.90;99.90;;;;;;5093050;28;20467;-66
2020/12/09 01:52:39;;;;;;;33.10;16.20;;;3.80;99.90;;;;;;5093099;28;20432;-66
2020/12/09 01:55:05;;;;;;;33.00;15.80;;;3.90;99.90;;;;;;5092748;28;20436;-67
2020/12/09 01:57:32;;;;;;;32.27;16.57;;;3.90;99.90;;;;;;5093056;28;20466;-66
2020/12/09 01:59:59;;;;;;;32.60;15.93;;;3.80;99.90;;;;;;5092927;28;20460;-66
2020/12/09 02:02:25;;;;;;;33.77;16.57;;;3.90;99.90;;;;;;5092885;28;20476;-67
2020/12/09 02:04:52;;;;;;;31.93;16.27;;;3.90;99.90;;;;;;5092999;28;20831;-66
2020/12/09 02:07:20;;;;;;;34.60;16.30;;;3.80;99.90;;;;;;5092957;28;20446;-66
2020/12/09 02:09:56;;;;;;;35.43;18.63;;;3.80;99.90;;;;;;5092842;28;20459;-66
2020/12/09 02:12:23;;;;;;;41.17;17.00;;;3.90;99.90;;;;;;5092622;28;20420;-66
2020/12/09 02:14:49;;;;;;;38.77;17.80;;;3.90;99.90;;;;;;5092868;28;20443;-66
2020/12/09 02:17:16;;;;;;;39.10;17.10;;;4.00;99.90;;;;;;5092507;28;20447;-66
2020/12/09 02:19:42;;;;;;;37.77;16.20;;;4.10;99.90;;;;;;5095737;28;20802;-67
2020/12/09 02:22:10;;;;;;;33.23;17.03;;;4.00;99.90;;;;;;5096368;28;20450;-67
2020/12/09 02:24:37;;;;;;;38.00;16.73;;;4.00;99.90;;;;;;5096099;28;20436;-66
2020/12/09 02:27:03;;;;;;;31.80;16.70;;;4.00;99.90;;;;;;5096337;28;20443;-66
2020/12/09 02:29:29;;;;;;;33.53;15.40;;;4.00;99.90;;;;;;5096256;28;20432;-66
2020/12/09 02:31:56;;;;;;;33.57;17.47;;;4.10;99.90;;;;;;5096221;28;20443;-66
2020/12/09 02:34:22;;;;;;;35.87;17.33;;;4.10;99.90;;;;;;5095962;28;20479;-67
2020/12/09 02:36:48;;;;;;;39.03;17.60;;;4.10;99.90;;;;;;5096187;28;20439;-66
2020/12/09 02:39:15;;;;;;;39.77;17.77;;;4.00;99.90;;;;;;5096124;28;20436;-66
2020/12/09 02:41:41;;;;;;;33.23;16.40;;;4.00;99.90;;;;;;5096697;28;20490;-67
2020/12/09 02:44:08;;;;;;;34.13;16.77;;;4.00;99.90;;;;;;5096045;28;20807;-66
2020/12/09 02:46:34;;;;;;;32.13;16.60;;;4.00;99.90;;;;;;5095660;28;20453;-66
2020/12/09 02:49:00;;;;;;;40.47;17.27;;;4.00;99.90;;;;;;5095581;28;20935;-66
2020/12/09 02:51:26;;;;;;;30.53;16.10;;;4.00;99.90;;;;;;5095782;28;20452;-66
2020/12/09 02:53:52;;;;;;;32.87;16.60;;;4.00;99.90;;;;;;5095859;28;20807;-66
2020/12/09 02:56:19;;;;;;;40.73;17.77;;;4.00;99.90;;;;;;5095795;28;20411;-66
2020/12/09 02:58:46;;;;;;;40.17;17.90;;;4.10;99.90;;;;;;5095721;28;20430;-66
2020/12/09 03:01:12;;;;;;;35.30;16.43;;;4.10;99.90;;;;;;5095579;28;20459;-67
2020/12/09 03:03:38;;;;;;;36.10;16.40;;;4.10;99.90;;;;;;5095618;28;20451;-66
2020/12/09 03:06:04;;;;;;;32.53;16.70;;;4.00;99.90;;;;;;5095573;28;20436;-66
2020/12/09 03:08:30;;;;;;;33.77;15.13;;;4.10;99.90;;;;;;5095569;28;20443;-66
2020/12/09 03:10:57;;;;;;;33.40;17.00;;;4.10;99.90;;;;;;5095389;28;20467;-66
2020/12/09 03:13:24;;;;;;;32.47;15.63;;;4.00;99.90;;;;;;5095172;28;21004;-67
2020/12/09 03:15:50;;;;;;;33.57;16.90;;;4.00;99.90;;;;;;5095411;28;20451;-67
2020/12/09 03:18:16;;;;;;;36.43;17.13;;;4.00;99.90;;;;;;5095040;28;20451;-67
2020/12/09 03:20:45;;;;;;;29.33;15.97;;;3.90;99.90;;;;;;5095252;28;20462;-67
2020/12/09 03:23:11;;;;;;;37.07;16.87;;;3.90;99.90;;;;;;5095162;28;20480;-67
2020/12/09 03:25:37;;;;;;;37.87;17.43;;;3.90;99.90;;;;;;5094889;28;20974;-66
2020/12/09 03:28:04;;;;;;;36.90;16.73;;;3.90;99.90;;;;;;5095152;28;20443;-67
2020/12/09 03:30:31;;;;;;;37.50;18.10;;;3.90;99.90;;;;;;5093919;28;20446;-66
2020/12/09 03:32:57;;;;;;;31.37;16.23;;;4.00;99.90;;;;;;5095601;28;20443;-67
2020/12/09 03:35:23;;;;;;;34.87;18.20;;;3.90;99.90;;;;;;5094643;28;20471;-68
2020/12/09 03:37:49;;;;;;;32.57;16.10;;;3.90;99.90;;;;;;5094638;28;20894;-67
2020/12/09 03:40:15;;;;;;;34.93;16.37;;;3.90;99.90;;;;;;5094486;28;20967;-67
2020/12/09 03:42:42;;;;;;;35.77;17.90;;;3.80;99.90;;;;;;5094777;28;20487;-67
2020/12/09 03:45:08;;;;;;;33.03;16.70;;;3.80;99.90;;;;;;5095378;28;20444;-67
2020/12/09 03:47:35;;;;;;;35.97;17.13;;;3.80;99.90;;;;;;5094771;28;20530;-68
2020/12/09 03:50:03;;;;;;;31.93;16.70;;;3.80;99.90;;;;;;5094681;28;20467;-67
2020/12/09 03:52:29;;;;;;;36.80;17.13;;;3.80;99.90;;;;;;5094544;28;20444;-66
2020/12/09 03:54:55;;;;;;;39.60;16.90;;;3.80;99.90;;;;;;5094668;28;20429;-66
2020/12/09 03:57:22;;;;;;;33.60;16.50;;;3.80;99.90;;;;;;5094644;28;20427;-66
2020/12/09 03:59:48;;;;;;;39.70;17.27;;;3.80;99.90;;;;;;5094201;28;20981;-66
2020/12/09 04:02:14;;;;;;;36.37;17.10;;;3.80;99.90;;;;;;5094425;28;20472;-66
2020/12/09 04:04:41;;;;;;;31.67;16.40;;;3.80;99.90;;;;;;5094508;28;20452;-66
2020/12/09 04:07:07;;;;;;;40.03;17.63;;;3.90;99.90;;;;;;5094396;28;20440;-66
2020/12/09 04:09:34;;;;;;;33.60;16.57;;;3.90;99.90;;;;;;5094268;28;20444;-66
2020/12/09 04:12:00;;;;;;;35.90;17.07;;;3.90;99.90;;;;;;5094350;28;20432;-66
2020/12/09 04:14:26;;;;;;;37.17;17.87;;;3.90;99.90;;;;;;5094338;28;20420;-66
2020/12/09 04:16:52;;;;;;;35.13;15.80;;;3.90;99.90;;;;;;5094237;28;20447;-66
2020/12/09 04:19:18;;;;;;;34.03;16.70;;;3.90;99.90;;;;;;5094214;28;20432;-67
2020/12/09 04:21:45;;;;;;;37.97;16.40;;;3.80;99.90;;;;;;5094010;28;20491;-66
2020/12/09 04:24:11;;;;;;;36.63;15.70;;;3.90;99.90;;;;;;5093845;28;20440;-66
2020/12/09 04:26:38;;;;;;;31.30;15.03;;;4.00;99.90;;;;;;5094085;28;20440;-66
2020/12/09 04:29:04;;;;;;;30.17;15.70;;;4.00;99.90;;;;;;5094051;28;20851;-66
2020/12/09 04:31:30;;;;;;;29.87;15.93;;;4.00;99.90;;;;;;5093949;28;20460;-66
2020/12/09 04:34:00;;;;;;;32.10;15.90;;;3.90;99.90;;;;;;5093791;28;20436;-67
2020/12/09 04:36:27;;;;;;;31.17;16.30;;;4.00;99.90;;;;;;5093957;28;20506;-66
2020/12/09 04:38:54;;;;;;;33.50;15.37;;;4.00;99.90;;;;;;5093899;28;20439;-66
2020/12/09 04:41:20;;;;;;;29.00;15.33;;;4.00;99.90;;;;;;5093682;28;20487;-66
2020/12/09 04:43:47;;;;;;;28.60;15.27;;;4.10;99.90;;;;;;5093829;28;20447;-66
2020/12/09 04:46:13;;;;;;;28.27;15.00;;;4.00;99.90;;;;;;5093816;28;20444;-66
2020/12/09 04:48:41;;;;;;;30.33;14.93;;;4.00;99.90;;;;;;5093744;28;20451;-67
2020/12/09 04:51:29;;;;;;;32.80;15.90;;;4.00;99.90;;;;;;5093332;28;20456;-66
2020/12/09 04:53:59;;;;;;;29.93;15.40;;;4.00;99.90;;;;;;5093382;28;20427;-66
2020/12/09 04:56:29;;;;;;;26.33;13.53;;;3.90;99.90;;;;;;5093935;28;20462;-66
2020/12/09 04:58:57;;;;;;;29.17;14.10;;;3.90;99.90;;;;;;5093335;28;20428;-66
2020/12/09 05:01:32;;;;;;;30.30;16.40;;;4.00;99.90;;;;;;5093229;28;20456;-67
2020/12/09 05:03:59;;;;;;;30.50;14.00;;;4.00;99.90;;;;;;5093538;28;20428;-66
2020/12/09 05:06:25;;;;;;;29.23;14.07;;;4.10;99.90;;;;;;5093498;28;20439;-66
2020/12/09 05:08:54;;;;;;;29.67;14.23;;;4.00;99.90;;;;;;5093486;28;20428;-66
2020/12/09 05:11:23;;;;;;;25.53;14.03;;;3.90;99.90;;;;;;5093546;28;20899;-66
2020/12/09 05:13:53;;;;;;;32.60;17.10;;;3.90;99.90;;;;;;5093463;28;20436;-66
2020/12/09 05:16:21;;;;;;;31.67;14.20;;;3.90;99.90;;;;;;5093678;28;20424;-66
2020/12/09 05:18:47;;;;;;;32.53;15.10;;;3.90;99.90;;;;;;5093330;28;20432;-66
2020/12/09 05:21:16;;;;;;;28.10;14.60;;;3.90;99.90;;;;;;5093319;28;20459;-66
2020/12/09 05:23:56;;;;;;;27.97;14.80;;;4.00;99.90;;;;;;5093850;28;20450;-66
2020/12/09 05:26:25;;;;;;;25.90;13.40;;;4.00;99.90;;;;;;5093366;28;20420;-67
2020/12/09 05:29:06;;;;;;;27.40;14.17;;;4.00;99.90;;;;;;5093340;28;20549;-66
2020/12/09 05:31:32;;;;;;;31.83;15.60;;;4.00;99.90;;;;;;5093262;28;20795;-66
2020/12/09 05:33:58;;;;;;;30.77;15.83;;;4.00;99.90;;;;;;5093049;28;20451;-66
2020/12/09 05:36:26;;;;;;;29.10;14.23;;;4.00;99.90;;;;;;5092976;28;20871;-66
2020/12/09 05:39:04;;;;;;;28.90;15.60;;;4.00;99.90;;;;;;5093213;28;20500;-66
2020/12/09 05:41:33;;;;;;;33.30;15.07;;;4.00;99.90;;;;;;5093131;28;20460;-66
2020/12/09 05:44:03;;;;;;;28.27;13.73;;;4.00;99.90;;;;;;5093212;28;20549;-67
2020/12/09 05:46:30;;;;;;;29.83;15.50;;;4.00;99.90;;;;;;5093202;28;20523;-66
2020/12/09 05:48:57;;;;;;;26.60;14.27;;;4.10;99.90;;;;;;5093093;28;20432;-66
2020/12/09 05:51:24;;;;;;;26.40;13.83;;;4.00;99.90;;;;;;5093046;28;20456;-67
2020/12/09 05:53:50;;;;;;;27.50;13.47;;;4.00;99.90;;;;;;5094835;28;20402;-67
2020/12/09 05:56:18;;;;;;;27.33;13.17;;;4.00;99.90;;;;;;5096960;28;20510;-66
2020/12/09 05:58:46;;;;;;;31.40;14.70;;;4.10;99.90;;;;;;5096774;28;20542;-66
2020/12/09 06:01:15;;;;;;;27.37;14.97;;;4.00;99.90;;;;;;5096735;28;20448;-66
2020/12/09 06:03:43;;;;;;;33.23;14.00;;;4.00;99.90;;;;;;5096729;28;20480;-66
2020/12/09 06:06:22;;;;;;;25.77;12.90;;;4.00;99.90;;;;;;5096451;28;20444;-66
2020/12/09 06:08:50;;;;;;;26.53;13.90;;;4.00;99.90;;;;;;5096763;28;20427;-66
2020/12/09 06:11:18;;;;;;;26.23;13.60;;;4.00;99.90;;;;;;5096279;28;20455;-66
2020/12/09 06:13:46;;;;;;;32.33;14.67;;;3.90;99.90;;;;;;5096316;28;20439;-66
2020/12/09 06:16:12;;;;;;;30.47;14.97;;;3.90;99.90;;;;;;5096568;28;20436;-66
2020/12/09 06:18:43;;;;;;;28.83;13.47;;;3.90;99.90;;;;;;5096551;28;20447;-66
2020/12/09 06:21:09;;;;;;;28.37;12.33;;;3.90;99.90;;;;;;5096463;28;20460;-66
2020/12/09 06:23:35;;;;;;;25.40;13.90;;;3.90;99.90;;;;;;5096400;28;20476;-67
2020/12/09 06:26:04;;;;;;;27.67;13.50;;;4.00;99.90;;;;;;5096379;28;20439;-66
2020/12/09 06:28:33;;;;;;;25.70;13.40;;;4.00;99.90;;;;;;5096096;28;20974;-67
2020/12/09 06:31:10;;;;;;;23.77;13.83;;;4.00;99.90;;;;;;5096271;28;20469;-66
2020/12/09 06:33:38;;;;;;;30.37;14.57;;;4.00;99.90;;;;;;5096152;28;20922;-66
2020/12/09 06:36:19;;;;;;;29.87;13.63;;;4.10;99.90;;;;;;5095827;28;20480;-66
2020/12/09 06:39:15;;;;;;;29.00;13.53;;;4.00;99.90;;;;;;5095859;28;20425;-66
2020/12/09 06:41:57;;;;;;;24.20;12.77;;;4.00;99.90;;;;;;5095933;28;20496;-66
2020/12/09 06:44:28;;;;;;;30.50;13.23;;;4.00;99.90;;;;;;5095629;28;20436;-66
2020/12/09 06:46:57;;;;;;;23.50;11.97;;;4.00;99.90;;;;;;5095713;28;20919;-66
2020/12/09 06:49:36;;;;;;;25.03;13.80;;;4.00;99.90;;;;;;5095858;28;20440;-66
2020/12/09 06:52:24;;;;;;;28.40;14.47;;;4.00;99.90;;;;;;5095933;28;20504;-66
2020/12/09 06:54:50;;;;;;;27.87;13.30;;;4.00;99.90;;;;;;5095356;28;20823;-67
2020/12/09 06:57:18;;;;;;;26.73;14.17;;;4.00;99.90;;;;;;5095729;28;20444;-67
2020/12/09 06:59:46;;;;;;;24.97;12.70;;;4.00;99.90;;;;;;5095631;28;20509;-67
2020/12/09 07:02:26;;;;;;;27.57;13.70;;;4.00;99.90;;;;;;5095623;28;20479;-66
2020/12/09 07:05:17;;;;;;;25.07;12.57;;;4.10;99.90;;;;;;5094375;28;20431;-66
2020/12/09 07:07:45;;;;;;;22.30;12.83;;;4.00;99.90;;;;;;5095613;28;20428;-66
2020/12/09 07:10:20;;;;;;;25.00;13.33;;;4.00;99.90;;;;;;5095168;28;20438;-66
2020/12/09 07:12:47;;;;;;;29.53;13.73;;;4.00;99.90;;;;;;5095507;28;20424;-67
2020/12/09 07:15:14;;;;;;;24.70;13.00;;;4.10;99.90;;;;;;5095151;28;20446;-66
2020/12/09 07:17:42;;;;;;;27.17;13.23;;;4.10;99.90;;;;;;5095226;28;20946;-66
2020/12/09 07:20:10;;;;;;;25.30;12.83;;;4.10;99.90;;;;;;5095302;28;20467;-66
2020/12/09 07:22:39;;;;;;;25.23;13.90;;;4.10;99.90;;;;;;5095254;28;20484;-66
2020/12/09 07:25:05;;;;;;;25.37;13.20;;;4.10;99.90;;;;;;5095262;28;20497;-66
2020/12/09 07:27:34;;;;;;;24.00;13.47;;;4.10;99.90;;;;;;5094871;28;20436;-67
2020/12/09 07:30:04;;;;;;;23.37;12.33;;;4.10;99.90;;;;;;5095130;28;20460;-66
2020/12/09 07:32:30;;;;;;;30.80;13.47;;;4.00;99.90;;;;;;5095152;28;20420;-66
2020/12/09 07:34:58;;;;;;;25.20;12.67;;;4.00;99.90;;;;;;5094533;28;20476;-66
2020/12/09 07:37:27;;;;;;;25.90;14.50;;;4.00;99.90;;;;;;5095001;28;20440;-66
2020/12/09 07:39:56;;;;;;;27.00;12.90;;;4.00;99.90;;;;;;5094915;28;20837;-69
2020/12/09 07:42:24;;;;;;;42.57;14.50;;;4.10;99.90;;;;;;5094909;28;20468;-69
2020/12/09 07:44:52;;;;;;;24.07;13.30;;;4.10;99.90;;;;;;5094632;28;20425;-71
2020/12/09 07:47:24;;;;;;;28.50;13.70;;;4.20;99.90;;;;;;5094851;28;20420;-69
2020/12/09 07:49:55;;;;;;;29.40;13.73;;;4.10;99.90;;;;;;5094739;28;20457;-69
2020/12/09 07:52:25;;;;;;;24.00;11.73;;;4.00;99.90;;;;;;5094482;28;20428;-69
2020/12/09 07:54:56;;;;;;;23.30;12.67;;;4.10;99.90;;;;;;5094742;28;20786;-69
2020/12/09 07:57:24;;;;;;;27.40;13.60;;;4.20;99.90;;;;;;5094686;28;20424;-69
2020/12/09 07:59:55;;;;;;;23.73;11.97;;;4.20;99.90;;;;;;5094246;28;20817;-69
2020/12/09 08:02:22;;;;;;;25.97;12.90;;;4.10;99.90;;;;;;5094532;28;20460;-69
2020/12/09 08:05:05;;;;;;;24.97;13.10;;;4.10;99.90;;;;;;5094142;28;20798;-69
2020/12/09 08:07:32;;;;;;;23.27;12.63;;;4.10;99.90;;;;;;5094189;28;20450;-69
2020/12/09 08:10:06;;;;;;;23.00;13.10;;;4.00;99.90;;;;;;5094003;28;20794;-69
2020/12/09 08:12:35;;;;;;;22.53;12.50;;;4.00;99.90;;;;;;5094335;28;20443;-69
2020/12/09 08:15:01;;;;;;;25.30;13.73;;;4.00;99.90;;;;;;5094330;28;20527;-69
2020/12/09 08:17:28;;;;;;;22.47;11.87;;;4.00;99.90;;;;;;5093877;28;20448;-69
2020/12/09 08:20:06;;;;;;;21.23;12.50;;;3.90;99.90;;;;;;5094105;28;20825;-69
2020/12/09 08:22:33;;;;;;;22.23;13.07;;;4.00;99.90;;;;;;5093814;28;20460;-69
2020/12/09 08:25:07;;;;;;;26.83;14.10;;;4.10;99.90;;;;;;5094126;28;20443;-69
2020/12/09 08:27:44;;;;;;;26.07;12.00;;;4.10;99.90;;;;;;5094040;28;20448;-69
2020/12/09 08:30:17;;;;;;;27.13;13.33;;;4.10;99.90;;;;;;5093966;28;20459;-69
2020/12/09 08:33:06;;;;;;;24.50;12.77;;;4.20;99.90;;;;;;5094092;28;20427;-69
2020/12/09 08:35:45;;;;;;;23.10;12.90;;;4.20;99.90;;;;;;5093575;28;20828;-69
2020/12/09 08:38:21;;;;;;;25.67;13.90;;;4.10;99.90;;;;;;5093958;28;20431;-71
2020/12/09 08:40:49;;;;;;;26.63;13.07;;;4.00;99.90;;;;;;5093550;28;20975;-66
2020/12/09 08:43:15;;;;;;;24.60;12.97;;;4.10;99.90;;;;;;5093774;28;20476;-67
2020/12/09 08:45:44;;;;;;;21.20;12.40;;;4.00;99.90;;;;;;5093832;28;20424;-66
2020/12/09 08:48:10;;;;;;;28.10;14.73;;;4.10;99.90;;;;;;5093756;28;20827;-67
2020/12/09 08:50:36;;;;;;;27.60;12.57;;;4.00;99.90;;;;;;5093681;28;20496;-67
2020/12/09 08:53:02;;;;;;;21.30;12.33;;;4.10;99.90;;;;;;5093757;28;20431;-66
2020/12/09 08:55:29;;;;;;;27.50;14.97;;;4.20;99.90;;;;;;5093685;28;20416;-67
2020/12/09 08:57:56;;;;;;;27.40;14.57;;;4.20;99.90;;;;;;5093652;28;20443;-67
2020/12/09 09:00:22;;;;;;;26.80;13.10;;;4.10;99.90;;;;;;5093253;28;20467;-67
2020/12/09 09:02:48;;;;;;;30.90;14.20;;;4.00;99.90;;;;;;5093450;28;20475;-66
2020/12/09 09:05:14;;;;;;;27.70;14.70;;;4.10;99.90;;;;;;5094135;28;20440;-67
2020/12/09 09:07:41;;;;;;;24.77;13.90;;;4.00;99.90;;;;;;5093581;28;20444;-67
2020/12/09 09:10:07;;;;;;;24.30;14.03;;;4.00;99.90;;;;;;5093435;28;20435;-67
2020/12/09 09:12:35;;;;;;;25.63;13.67;;;4.10;99.90;;;;;;5093518;28;20444;-67
2020/12/09 09:15:01;;;;;;;26.97;14.27;;;4.10;99.90;;;;;;5093419;28;20440;-67
2020/12/09 09:17:27;;;;;;;28.57;14.23;;;4.00;99.90;;;;;;5093911;28;20833;-67
2020/12/09 09:19:53;;;;;;;27.80;15.10;;;4.10;99.90;;;;;;5093348;28;20459;-67
2020/12/09 09:22:19;;;;;;;23.73;13.43;;;4.10;99.90;;;;;;5093368;28;20504;-67
2020/12/09 09:24:46;;;;;;;26.30;13.73;;;4.00;99.90;;;;;;5093063;28;20443;-66
2020/12/09 09:27:12;;;;;;;26.73;14.27;;;4.10;99.90;;;;;;5093363;28;20436;-67
2020/12/09 09:29:39;;;;;;;27.50;15.00;;;4.10;99.90;;;;;;5096532;28;20440;-67
2020/12/09 09:32:05;;;;;;;28.87;14.23;;;4.10;99.90;;;;;;5097530;28;20443;-67
2020/12/09 09:34:32;;;;;;;30.87;14.93;;;4.10;99.90;;;;;;5097918;28;20472;-66
2020/12/09 09:36:58;;;;;;;26.03;14.70;;;4.10;99.90;;;;;;5100809;28;20443;-67
2020/12/09 09:39:24;;;;;;;28.70;15.33;;;4.10;99.90;;;;;;5098179;28;20458;-67
2020/12/09 09:41:56;;;;;;;27.63;16.23;;;4.10;99.90;;;;;;5097292;28;20439;-67
2020/12/09 09:44:22;;;;;;;31.57;15.67;;;4.10;99.90;;;;;;5097210;28;20556;-67
2020/12/09 09:46:49;;;;;;;30.87;15.37;;;4.10;99.90;;;;;;5096855;28;20931;-67
2020/12/09 09:49:15;;;;;;;29.23;15.50;;;4.20;99.90;;;;;;5096828;28;20900;-68
2020/12/09 09:51:41;;;;;;;32.53;15.87;;;4.20;99.90;;;;;;5096945;28;20482;-67
2020/12/09 09:54:08;;;;;;;26.03;14.63;;;4.20;99.90;;;;;;5097065;28;20427;-67
2020/12/09 09:56:34;;;;;;;28.70;15.33;;;4.20;99.90;;;;;;5096698;28;20935;-66
2020/12/09 09:59:00;;;;;;;33.60;16.50;;;4.30;99.90;;;;;;5096948;28;20436;-67
2020/12/09 10:01:27;;;;;;;32.63;16.87;;;4.30;99.90;;;;;;5096844;28;20462;-67
2020/12/09 10:03:54;;;;;;;35.50;17.37;;;4.30;99.90;;;;;;5097401;28;20471;-67
2020/12/09 10:06:20;;;;;;;31.03;16.07;;;4.40;99.90;;;;;;5096894;28;20439;-67
2020/12/09 10:08:46;;;;;;;29.70;15.13;;;4.40;99.90;;;;;;5096761;28;20435;-67
2020/12/09 10:11:12;;;;;;;28.30;14.60;;;4.50;99.90;;;;;;5096688;28;20460;-67
2020/12/09 10:13:38;;;;;;;32.23;15.80;;;4.40;99.90;;;;;;5096698;28;20419;-67
2020/12/09 10:16:05;;;;;;;28.23;16.60;;;4.40;99.90;;;;;;5096364;28;20789;-66
2020/12/09 10:18:31;;;;;;;30.73;15.13;;;4.50;99.90;;;;;;5096302;28;20427;-67
2020/12/09 10:20:58;;;;;;;28.30;15.60;;;4.50;99.90;;;;;;5096485;28;20467;-67
2020/12/09 10:23:24;;;;;;;28.93;15.03;;;4.50;99.90;;;;;;5096466;28;20490;-67
2020/12/09 10:25:50;;;;;;;28.27;15.43;;;4.50;99.90;;;;;;5096160;28;20922;-67
2020/12/09 10:28:17;;;;;;;25.07;13.90;;;4.40;99.90;;;;;;5096143;28;20424;-67
2020/12/09 10:30:46;;;;;;;28.97;15.13;;;4.40;99.90;;;;;;5096332;28;20463;-68
2020/12/09 10:33:12;;;;;;;27.50;15.07;;;4.40;99.90;;;;;;5096008;28;20428;-67
2020/12/09 10:35:39;;;;;;;25.50;14.73;;;4.40;99.90;;;;;;5095859;28;20493;-67
2020/12/09 10:38:06;;;;;;;23.87;13.57;;;4.40;99.90;;;;;;5096247;28;20431;-66
2020/12/09 10:40:32;;;;;;;24.43;14.50;;;4.40;99.90;;;;;;5095840;28;20463;-67
2020/12/09 10:42:58;;;;;;;30.27;14.13;;;4.40;99.90;;;;;;5096038;28;20834;-68
2020/12/09 10:45:25;;;;;;;29.10;15.67;;;4.40;99.90;;;;;;5096100;28;20435;-67
2020/12/09 10:47:51;;;;;;;23.40;13.97;;;4.40;99.90;;;;;;5095730;28;20418;-67
2020/12/09 10:50:17;;;;;;;24.77;14.00;;;4.40;99.90;;;;;;5095952;28;20452;-67
2020/12/09 10:52:43;;;;;;;27.20;13.70;;;4.50;99.90;;;;;;5096007;28;20427;-69
2020/12/09 10:55:10;;;;;;;25.80;12.77;;;4.60;99.90;;;;;;5095943;28;20787;-71
2020/12/09 10:57:36;;;;;;;22.73;12.50;;;4.50;99.90;;;;;;5095931;28;20416;-71
2020/12/09 11:00:07;;;;;;;25.20;13.93;;;4.60;99.90;;;;;;5095862;28;20459;-70
2020/12/09 11:02:33;;;;;;;23.03;12.20;;;4.60;99.90;;;;;;5095672;28;20468;-71
2020/12/09 11:04:59;;;;;;;20.87;12.17;;;4.50;99.90;;;;;;5095780;28;20798;-70
2020/12/09 11:07:25;;;;;;;20.23;12.10;;;4.60;99.90;;;;;;5095716;28;20433;-71
2020/12/09 11:09:51;;;;;;;24.73;12.87;;;4.50;99.90;;;;;;5095296;28;20971;-70
2020/12/09 11:12:20;;;;;;;23.60;13.20;;;4.50;99.90;;;;;;5095672;28;20420;-71
2020/12/09 11:14:46;;;;;;;22.77;13.07;;;4.60;99.90;;;;;;5095633;28;20428;-71
2020/12/09 11:17:12;;;;;;;21.17;12.50;;;4.60;99.90;;;;;;5095526;28;20423;-71
2020/12/09 11:19:38;;;;;;;25.40;14.80;;;4.60;99.90;;;;;;5095365;28;20420;-71
2020/12/09 11:22:04;;;;;;;26.00;14.10;;;4.60;99.90;;;;;;5095400;28;20416;-71
2020/12/09 11:24:31;;;;;;;28.53;13.63;;;4.70;99.90;;;;;;5094952;28;20460;-71
2020/12/09 11:26:57;;;;;;;22.00;13.50;;;4.70;99.90;;;;;;5095269;28;20420;-71
2020/12/09 11:29:24;;;;;;;21.57;12.23;;;4.70;99.90;;;;;;5095199;28;20432;-70
2020/12/09 11:31:53;;;;;;;22.60;13.23;;;4.70;99.90;;;;;;5095289;28;20420;-71
2020/12/09 11:34:21;;;;;;;25.77;14.37;;;4.70;99.90;;;;;;5094966;28;20471;-70
2020/12/09 11:36:47;;;;;;;25.20;13.57;;;4.60;99.90;;;;;;5095119;28;20852;-71
2020/12/09 11:39:13;;;;;;;32.47;14.30;;;4.60;99.90;;;;;;5095491;28;20433;-71
2020/12/09 11:41:39;;;;;;;27.37;14.20;;;4.60;99.90;;;;;;5094889;28;20860;-71
2020/12/09 11:44:06;;;;;;;24.60;13.67;;;4.60;99.90;;;;;;5094915;28;20464;-71
2020/12/09 11:46:33;;;;;;;25.63;13.20;;;4.60;99.90;;;;;;5094964;28;20424;-70
2020/12/09 11:48:59;;;;;;;24.23;13.53;;;4.70;99.90;;;;;;5094873;28;20431;-71
2020/12/09 11:51:25;;;;;;;29.17;14.83;;;4.60;99.90;;;;;;5094009;28;20460;-71
2020/12/09 11:53:51;;;;;;;23.23;13.73;;;4.60;99.90;;;;;;5094583;28;20417;-71
2020/12/09 11:56:22;;;;;;;26.40;13.67;;;4.60;99.90;;;;;;5094459;28;20918;-71
2020/12/09 11:58:49;;;;;;;22.57;12.30;;;4.70;99.90;;;;;;5094471;28;21003;-70
2020/12/09 12:01:15;;;;;;;28.00;15.30;;;4.60;99.90;;;;;;5094267;28;20463;-71
2020/12/09 12:03:43;;;;;;;25.20;13.50;;;4.70;99.90;;;;;;5094516;28;20459;-71
2020/12/09 12:06:18;;;;;;;29.60;14.60;;;4.60;99.90;;;;;;5094235;28;20436;-71
2020/12/09 12:08:44;;;;;;;25.80;14.00;;;4.60;99.90;;;;;;5094518;28;20467;-70
2020/12/09 12:11:14;;;;;;;27.03;14.10;;;4.70;99.90;;;;;;5094382;28;20460;-71
2020/12/09 12:13:40;;;;;;;24.30;13.60;;;4.70;99.90;;;;;;5094465;28;20416;-72
2020/12/09 12:16:11;;;;;;;26.70;14.10;;;4.60;99.90;;;;;;5094378;28;20420;-71
2020/12/09 12:18:37;;;;;;;30.30;15.77;;;4.60;99.90;;;;;;5094023;28;20895;-71
2020/12/09 12:21:04;;;;;;;29.40;15.40;;;4.60;99.90;;;;;;5094239;28;20463;-71
2020/12/09 12:23:30;;;;;;;27.50;14.57;;;4.60;99.90;;;;;;5094152;28;20471;-72
2020/12/09 12:25:57;;;;;;;24.43;13.53;;;4.60;99.90;;;;;;5094171;28;20427;-71
2020/12/09 12:28:24;;;;;;;23.47;13.47;;;4.60;99.90;;;;;;5094234;28;20428;-71
2020/12/09 12:30:50;;;;;;;31.70;15.67;;;4.50;99.90;;;;;;5094043;28;20460;-72
2020/12/09 12:33:16;;;;;;;27.07;15.33;;;4.50;99.90;;;;;;5094108;28;20440;-71
2020/12/09 12:35:43;;;;;;;32.03;15.73;;;4.60;99.90;;;;;;5093578;28;20472;-71
2020/12/09 12:38:10;;;;;;;27.43;15.03;;;4.50;99.90;;;;;;5094006;28;20402;-71